createdAt,value
2017-12-30T00:01:01.238Z,15.20
2017-12-30T00:03:28.822Z,14.70
2017-12-30T00:05:56.470Z,13.60
2017-12-30T00:08:24.003Z,15.33
2017-12-30T00:10:51.558Z,9.63
2017-12-30T00:13:19.111Z,12.83
2017-12-30T00:15:46.698Z,14.23
2017-12-30T00:18:14.289Z,13.80
2017-12-30T00:20:41.848Z,16.67
2017-12-30T00:23:09.388Z,13.53
2017-12-30T00:25:36.983Z,10.27
2017-12-30T00:28:05.281Z,16.93
2017-12-30T00:30:32.854Z,7.77
2017-12-30T00:33:00.409Z,13.27
2017-12-30T00:35:27.942Z,6.83
2017-12-30T00:37:55.505Z,12.10
2017-12-30T00:40:23.051Z,10.80
2017-12-30T00:42:51.390Z,10.63
2017-12-30T00:45:18.918Z,9.67
2017-12-30T00:47:46.490Z,19.07
2017-12-30T00:50:14.022Z,16.20
2017-12-30T00:52:41.590Z,12.83
2017-12-30T00:55:09.118Z,11.57
2017-12-30T00:57:36.670Z,9.30
2017-12-30T01:00:04.206Z,19.47
2017-12-30T01:02:32.534Z,20.37
2017-12-30T01:05:00.838Z,13.97
2017-12-30T01:07:28.393Z,10.57
2017-12-30T01:09:55.933Z,12.40
2017-12-30T01:12:24.302Z,10.50
2017-12-30T01:14:52.608Z,16.17
2017-12-30T01:17:20.251Z,13.33
2017-12-30T01:19:48.542Z,7.43
2017-12-30T01:22:16.121Z,9.60
2017-12-30T01:24:43.694Z,16.03
2017-12-30T01:27:12.017Z,16.67
2017-12-30T01:29:40.328Z,15.30
2017-12-30T01:32:07.914Z,13.80
2017-12-30T01:34:35.456Z,14.60
2017-12-30T01:37:02.987Z,13.93
2017-12-30T01:39:30.543Z,4.70
2017-12-30T01:41:58.831Z,13.57
2017-12-30T01:44:26.382Z,9.47
2017-12-30T01:46:53.923Z,10.50
2017-12-30T01:49:22.249Z,11.97
2017-12-30T01:51:49.780Z,14.70
2017-12-30T01:54:17.369Z,14.90
2017-12-30T01:56:44.934Z,10.87
2017-12-30T01:59:12.493Z,7.97
2017-12-30T02:01:40.035Z,12.33
2017-12-30T02:04:07.601Z,18.70
2017-12-30T02:06:35.133Z,14.03
2017-12-30T02:09:03.454Z,13.03
2017-12-30T02:11:31.001Z,15.23
2017-12-30T02:13:58.638Z,16.97
2017-12-30T02:16:26.177Z,23.00
2017-12-30T02:18:54.509Z,18.57
2017-12-30T02:21:22.122Z,17.23
2017-12-30T02:23:50.433Z,22.00
2017-12-30T02:26:17.961Z,13.73
2017-12-30T02:28:46.281Z,12.97
2017-12-30T02:31:13.818Z,27.53
2017-12-30T02:33:41.346Z,19.50
2017-12-30T02:36:08.911Z,23.00
2017-12-30T02:38:37.232Z,17.07
2017-12-30T02:41:04.842Z,10.47
2017-12-30T02:43:32.366Z,18.73
2017-12-30T02:45:59.930Z,15.20
2017-12-30T02:48:27.481Z,19.33
2017-12-30T02:50:55.129Z,16.83
2017-12-30T02:53:22.666Z,16.50
2017-12-30T02:55:50.224Z,20.30
2017-12-30T02:58:17.761Z,20.70
2017-12-30T03:00:45.406Z,21.73
2017-12-30T03:03:12.933Z,27.00
2017-12-30T03:05:40.488Z,31.33
2017-12-30T03:08:08.053Z,20.00
2017-12-30T03:10:35.613Z,31.73
2017-12-30T03:13:03.142Z,16.80
2017-12-30T03:15:31.486Z,24.10
2017-12-30T03:17:59.025Z,26.30
2017-12-30T03:20:26.588Z,16.93
2017-12-30T03:22:54.210Z,27.70
2017-12-30T03:25:21.762Z,18.83
2017-12-30T03:27:50.066Z,24.83
2017-12-30T03:30:17.661Z,21.10
2017-12-30T03:32:45.193Z,20.57
2017-12-30T03:35:12.734Z,25.40
2017-12-30T03:37:40.292Z,16.33
2017-12-30T03:40:07.849Z,18.03
2017-12-30T03:42:36.022Z,22.67
2017-12-30T03:45:03.566Z,28.90
2017-12-30T03:47:31.886Z,19.43
2017-12-30T03:49:59.419Z,16.37
2017-12-30T03:52:26.971Z,22.93
2017-12-30T03:54:55.266Z,25.97
2017-12-30T03:57:22.858Z,22.07
2017-12-30T03:59:50.419Z,23.87
2017-12-30T04:02:18.002Z,23.93
2017-12-30T04:04:45.530Z,29.13
2017-12-30T04:07:13.084Z,25.20
2017-12-30T04:09:40.666Z,31.73
2017-12-30T04:12:08.221Z,27.37
2017-12-30T04:14:35.751Z,27.13
2017-12-30T04:17:10.022Z,18.50
2017-12-30T04:19:37.597Z,19.20
2017-12-30T04:22:05.193Z,14.60
2017-12-30T04:24:32.726Z,17.33
2017-12-30T04:27:00.312Z,26.17
2017-12-30T04:29:27.847Z,24.63
2017-12-30T04:31:55.628Z,16.67
2017-12-30T04:34:23.274Z,22.53
2017-12-30T04:36:50.809Z,13.67
2017-12-30T04:39:18.376Z,26.57
2017-12-30T04:41:46.674Z,25.00
2017-12-30T04:44:14.221Z,31.63
2017-12-30T04:46:42.527Z,22.07
2017-12-30T04:49:10.108Z,21.03
2017-12-30T04:51:37.642Z,36.23
2017-12-30T04:54:05.211Z,27.07
2017-12-30T04:56:49.362Z,24.37
2017-12-30T04:59:16.920Z,19.63
2017-12-30T05:01:44.517Z,26.97
2017-12-30T05:04:12.877Z,28.27
2017-12-30T05:06:40.401Z,17.70
2017-12-30T05:09:07.966Z,18.67
2017-12-30T05:11:35.497Z,25.63
2017-12-30T05:14:03.816Z,21.83
2017-12-30T05:16:31.342Z,26.13
2017-12-30T05:18:59.668Z,35.27
2017-12-30T05:21:27.207Z,29.03
2017-12-30T05:23:54.774Z,27.20
2017-12-30T05:26:22.306Z,21.00
2017-12-30T05:28:49.863Z,27.53
2017-12-30T05:31:18.158Z,25.77
2017-12-30T05:33:45.715Z,23.03
2017-12-30T05:36:13.258Z,37.93
2017-12-30T05:38:41.577Z,20.80
2017-12-30T05:41:09.110Z,27.60
2017-12-30T05:43:36.669Z,28.43
2017-12-30T05:46:04.230Z,20.77
2017-12-30T05:48:31.908Z,21.17
2017-12-30T05:50:59.475Z,20.97
2017-12-30T05:53:27.010Z,17.30
2017-12-30T05:55:54.577Z,15.50
2017-12-30T05:58:22.103Z,19.77
2017-12-30T06:00:50.437Z,12.23
2017-12-30T06:03:17.963Z,20.40
2017-12-30T06:05:45.517Z,18.23
2017-12-30T06:08:13.051Z,13.03
2017-12-30T06:10:40.611Z,10.23
2017-12-30T06:13:08.140Z,19.00
2017-12-30T06:15:35.699Z,22.03
2017-12-30T06:18:04.002Z,16.77
2017-12-30T06:20:31.631Z,14.07
2017-12-30T06:22:59.165Z,13.40
2017-12-30T06:25:26.736Z,28.50
2017-12-30T06:27:54.267Z,16.10
2017-12-30T06:51:16.893Z,10.83
2017-12-30T06:53:44.438Z,15.47
2017-12-30T06:56:12.054Z,14.50
2017-12-30T06:58:39.584Z,10.10
2017-12-30T07:01:07.138Z,11.60
2017-12-30T07:03:34.688Z,12.30
2017-12-30T07:06:02.246Z,11.87
2017-12-30T07:08:29.763Z,8.40
2017-12-30T07:10:58.088Z,13.60
2017-12-30T07:13:25.630Z,7.43
2017-12-30T07:15:53.237Z,6.70
2017-12-30T07:18:20.795Z,10.60
2017-12-30T07:23:42.510Z,8.23
2017-12-30T07:26:10.071Z,8.23
2017-12-30T07:28:37.614Z,9.53
2017-12-30T07:31:05.141Z,7.73
2017-12-30T07:33:32.693Z,6.10
2017-12-30T07:36:00.228Z,6.10
2017-12-30T07:38:27.783Z,7.87
2017-12-30T07:40:55.319Z,6.40
2017-12-30T07:43:22.869Z,5.03
2017-12-30T07:45:50.458Z,8.23
2017-12-30T07:48:18.023Z,5.33
2017-12-30T07:50:45.574Z,3.83
2017-12-30T07:53:13.129Z,6.47
2017-12-30T07:55:40.666Z,5.20
2017-12-30T07:58:08.218Z,5.47
2017-12-30T08:00:35.750Z,12.37
2017-12-30T08:03:03.311Z,12.00
2017-12-30T08:05:30.837Z,11.73
2017-12-30T08:07:58.387Z,6.80
2017-12-30T08:10:25.919Z,5.93
2017-12-30T08:12:53.474Z,4.40
2017-12-30T08:15:21.762Z,5.63
2017-12-30T08:17:49.314Z,6.33
2017-12-30T08:20:16.841Z,7.17
2017-12-30T08:22:44.434Z,11.37
2017-12-30T08:25:12.771Z,11.37
2017-12-30T08:27:40.488Z,4.10
2017-12-30T08:30:08.130Z,9.10
2017-12-30T08:32:35.667Z,5.50
2017-12-30T08:35:03.221Z,5.93
2017-12-30T08:37:30.765Z,11.00
2017-12-30T08:39:58.314Z,9.00
2017-12-30T08:42:25.837Z,7.40
2017-12-30T08:44:53.419Z,8.70
2017-12-30T08:47:20.946Z,7.37
2017-12-30T08:49:48.502Z,8.97
2017-12-30T08:52:16.816Z,7.13
2017-12-30T08:54:44.361Z,8.40
2017-12-30T08:57:11.898Z,7.17
2017-12-30T08:59:40.213Z,7.30
2017-12-30T09:02:07.791Z,3.10
2017-12-30T09:04:35.343Z,3.60
2017-12-30T09:07:02.914Z,4.37
2017-12-30T09:09:30.485Z,2.90
2017-12-30T09:11:58.053Z,6.43
2017-12-30T09:14:25.606Z,3.47
2017-12-30T09:16:53.133Z,4.87
2017-12-30T09:19:20.674Z,5.13
2017-12-30T09:21:48.199Z,3.00
2017-12-30T09:24:15.722Z,5.77
2017-12-30T09:26:43.485Z,5.70
2017-12-30T09:29:11.002Z,3.73
2017-12-30T09:31:39.322Z,4.63
2017-12-30T09:34:06.858Z,5.87
2017-12-30T09:36:34.439Z,4.50
2017-12-30T09:39:01.958Z,4.30
2017-12-30T09:41:30.273Z,3.90
2017-12-30T09:43:57.819Z,3.50
2017-12-30T09:46:25.390Z,4.27
2017-12-30T09:48:52.945Z,3.50
2017-12-30T09:51:20.490Z,3.53
2017-12-30T09:53:48.018Z,5.77
2017-12-30T09:56:15.562Z,6.80
2017-12-30T09:58:43.093Z,3.40
2017-12-30T10:01:10.641Z,3.30
2017-12-30T10:03:38.165Z,3.80
2017-12-30T10:06:06.528Z,3.33
2017-12-30T10:08:34.103Z,4.77
2017-12-30T10:11:02.418Z,2.10
2017-12-30T10:13:30.176Z,3.10
2017-12-30T10:15:57.726Z,2.27
2017-12-30T10:18:25.250Z,2.90
2017-12-30T10:20:52.838Z,2.23
2017-12-30T10:23:20.366Z,2.00
2017-12-30T10:25:47.914Z,2.30
2017-12-30T10:28:15.510Z,3.30
2017-12-30T10:30:43.853Z,2.17
2017-12-30T10:33:11.374Z,3.47
2017-12-30T10:35:38.918Z,3.60
2017-12-30T10:38:06.448Z,2.07
2017-12-30T10:40:33.993Z,4.53
2017-12-30T10:43:01.549Z,3.00
2017-12-30T10:45:29.091Z,2.73
2017-12-30T10:47:56.630Z,2.20
2017-12-30T10:50:27.282Z,3.13
2017-12-30T10:52:54.809Z,2.50
2017-12-30T10:55:22.362Z,6.50
2017-12-30T10:57:49.890Z,2.40
2017-12-30T11:00:17.513Z,2.73
2017-12-30T11:02:45.045Z,2.97
2017-12-30T11:05:22.858Z,12.77
2017-12-30T11:07:50.378Z,3.27
2017-12-30T11:10:18.698Z,4.33
2017-12-30T11:12:46.222Z,5.63
2017-12-30T11:15:14.546Z,3.80
2017-12-30T11:17:42.072Z,6.23
2017-12-30T11:20:09.601Z,6.97
2017-12-30T11:22:37.156Z,7.30
2017-12-30T11:25:04.693Z,8.53
2017-12-30T11:27:32.242Z,4.43
2017-12-30T11:29:59.766Z,2.70
2017-12-30T11:32:28.090Z,10.50
2017-12-30T11:34:55.625Z,4.83
2017-12-30T11:37:23.177Z,6.80
2017-12-30T11:39:50.726Z,5.30
2017-12-30T11:42:18.293Z,6.03
2017-12-30T11:44:45.842Z,8.93
2017-12-30T11:47:14.357Z,9.13
2017-12-30T11:49:41.885Z,7.43
2017-12-30T11:52:09.451Z,7.43
2017-12-30T11:54:36.989Z,11.60
2017-12-30T11:57:05.334Z,9.13
2017-12-30T11:59:32.858Z,7.20
2017-12-30T12:02:00.413Z,9.57
2017-12-30T12:04:27.954Z,10.53
2017-12-30T12:06:56.275Z,11.33
2017-12-30T12:09:23.803Z,7.13
2017-12-30T12:11:51.361Z,6.03
2017-12-30T12:14:18.895Z,10.30
2017-12-30T12:16:46.450Z,8.33
2017-12-30T12:19:13.979Z,15.67
2017-12-30T12:21:41.542Z,6.47
2017-12-30T12:24:09.073Z,9.83
2017-12-30T12:26:36.633Z,6.60
2017-12-30T12:29:04.171Z,6.70
2017-12-30T12:31:32.494Z,8.47
2017-12-30T12:34:00.031Z,9.20
2017-12-30T12:36:27.591Z,9.27
2017-12-30T12:38:55.122Z,4.67
2017-12-30T12:41:23.472Z,12.13
2017-12-30T12:43:50.990Z,11.30
2017-12-30T12:46:18.543Z,4.60
2017-12-30T12:48:46.078Z,6.53
2017-12-30T12:51:14.403Z,13.10
2017-12-30T12:53:41.934Z,8.60
2017-12-30T12:56:09.486Z,7.70
2017-12-30T12:58:37.779Z,5.97
2017-12-30T13:01:05.339Z,14.10
2017-12-30T13:03:32.864Z,5.90
2017-12-30T13:06:01.182Z,5.27
2017-12-30T13:08:28.710Z,8.90
2017-12-30T13:10:57.044Z,9.70
2017-12-30T13:13:24.573Z,11.90
2017-12-30T13:15:52.138Z,13.20
2017-12-30T13:18:19.673Z,12.90
2017-12-30T13:20:47.989Z,9.03
2017-12-30T13:23:15.516Z,6.67
2017-12-30T13:25:43.078Z,8.97
2017-12-30T13:28:10.620Z,5.23
2017-12-30T13:30:38.939Z,9.07
2017-12-30T13:33:06.511Z,13.77
2017-12-30T13:35:34.051Z,7.47
2017-12-30T13:38:01.611Z,5.00
2017-12-30T13:40:29.142Z,6.63
2017-12-30T13:42:57.466Z,12.47
2017-12-30T13:45:25.757Z,6.83
2017-12-30T13:47:53.317Z,8.53
2017-12-30T13:50:20.847Z,6.80
2017-12-30T13:52:48.404Z,8.20
2017-12-30T13:55:15.943Z,4.00
2017-12-30T13:57:43.502Z,12.03
2017-12-30T14:00:11.043Z,8.40
2017-12-30T14:02:39.366Z,8.87
2017-12-30T14:05:08.234Z,11.47
2017-12-30T14:07:35.803Z,10.37
2017-12-30T14:10:03.359Z,8.53
2017-12-30T14:12:30.914Z,9.43
2017-12-30T14:14:58.463Z,10.17
2017-12-30T14:17:26.788Z,8.53
2017-12-30T14:19:54.335Z,7.17
2017-12-30T14:22:21.886Z,6.67
2017-12-30T14:24:49.417Z,5.27
2017-12-30T14:27:17.742Z,9.73
2017-12-30T14:29:45.283Z,8.23
2017-12-30T14:32:12.843Z,3.80
2017-12-30T14:34:40.371Z,6.47
2017-12-30T14:37:08.702Z,7.30
2017-12-30T14:39:36.225Z,4.60
2017-12-30T14:42:03.790Z,5.40
2017-12-30T14:44:31.333Z,9.30
2017-12-30T14:46:59.676Z,4.57
2017-12-30T14:49:27.226Z,4.20
2017-12-30T14:51:54.801Z,6.67
2017-12-30T14:54:22.354Z,12.40
2017-12-30T14:56:49.930Z,7.53
2017-12-30T14:59:17.458Z,6.87
2017-12-30T15:01:45.015Z,5.47
2017-12-30T15:04:12.561Z,7.53
2017-12-30T15:06:40.152Z,7.27
2017-12-30T15:09:08.466Z,7.43
2017-12-30T15:11:36.815Z,5.63
2017-12-30T15:14:04.356Z,9.40
2017-12-30T15:16:31.938Z,9.10
2017-12-30T15:18:59.484Z,4.27
2017-12-30T15:21:27.061Z,12.00
2017-12-30T15:23:54.626Z,7.43
2017-12-30T15:26:22.210Z,5.93
2017-12-30T15:28:50.530Z,11.73
2017-12-30T15:31:18.095Z,4.43
2017-12-30T15:33:45.643Z,5.27
2017-12-30T15:36:13.189Z,6.63
2017-12-30T15:38:40.755Z,6.90
2017-12-30T15:41:08.294Z,10.00
2017-12-30T15:43:35.850Z,10.30
2017-12-30T15:46:03.395Z,6.83
2017-12-30T15:48:31.721Z,9.13
2017-12-30T15:50:59.249Z,5.50
2017-12-30T15:53:26.806Z,5.93
2017-12-30T15:55:54.343Z,6.50
2017-12-30T15:58:22.678Z,12.17
2017-12-30T16:00:50.210Z,2.73
2017-12-30T16:03:17.770Z,5.80
2017-12-30T16:05:45.297Z,3.27
2017-12-30T16:08:12.853Z,4.13
2017-12-30T16:10:40.377Z,3.13
2017-12-30T16:13:07.938Z,3.63
2017-12-30T16:15:35.466Z,3.60
2017-12-30T16:18:03.022Z,6.47
2017-12-30T16:20:30.552Z,3.27
2017-12-30T16:22:58.114Z,3.10
2017-12-30T16:25:26.422Z,5.00
2017-12-30T16:27:53.982Z,4.77
2017-12-30T16:30:21.527Z,2.23
2017-12-30T16:32:49.854Z,5.83
2017-12-30T16:35:17.378Z,4.50
2017-12-30T16:37:44.944Z,4.97
2017-12-30T16:40:12.482Z,2.13
2017-12-30T16:42:40.806Z,1.93
2017-12-30T16:45:08.338Z,1.80
2017-12-30T16:47:35.898Z,2.20
2017-12-30T16:50:03.423Z,2.37
2017-12-30T16:52:30.974Z,3.03
2017-12-30T16:54:58.503Z,3.60
2017-12-30T16:57:26.062Z,2.10
2017-12-30T16:59:53.586Z,5.77
2017-12-30T17:02:21.157Z,2.20
2017-12-30T17:04:48.677Z,3.30
2017-12-30T17:07:16.230Z,2.50
2017-12-30T17:09:43.787Z,2.20
2017-12-30T17:12:11.355Z,3.83
2017-12-30T17:14:38.895Z,3.50
2017-12-30T17:17:06.454Z,3.10
2017-12-30T17:19:33.998Z,5.37
2017-12-30T17:22:01.566Z,3.93
2017-12-30T17:24:29.087Z,3.40
2017-12-30T17:26:56.658Z,3.00
2017-12-30T17:29:24.210Z,3.23
2017-12-30T17:31:51.770Z,2.60
2017-12-30T17:34:19.294Z,3.13
2017-12-30T17:36:46.874Z,4.37
2017-12-30T17:39:15.182Z,3.03
2017-12-30T17:41:42.717Z,2.73
2017-12-30T17:44:11.045Z,2.87
2017-12-30T17:46:38.586Z,2.60
2017-12-30T17:49:06.137Z,2.30
2017-12-30T17:51:33.664Z,2.70
2017-12-30T17:54:01.979Z,2.87
2017-12-30T17:56:29.536Z,2.90
2017-12-30T17:58:57.095Z,2.80
2017-12-30T18:01:24.618Z,2.50
2017-12-30T18:03:52.938Z,2.03
2017-12-30T18:06:20.472Z,3.40
2017-12-30T18:08:48.029Z,2.50
2017-12-30T18:11:15.563Z,3.20
2017-12-30T18:13:43.883Z,2.60
2017-12-30T18:16:11.410Z,3.10
2017-12-30T18:18:39.738Z,2.30
2017-12-30T18:21:07.280Z,2.03
2017-12-30T18:23:34.840Z,2.30
2017-12-30T18:26:02.384Z,2.10
2017-12-30T18:28:29.946Z,4.73
2017-12-30T18:30:59.341Z,1.93
2017-12-30T18:33:27.050Z,2.00
2017-12-30T18:35:55.490Z,2.20
2017-12-30T18:38:23.118Z,2.70
2017-12-30T18:40:50.765Z,6.17
2017-12-30T18:43:19.436Z,2.30
2017-12-30T18:45:46.971Z,2.20
2017-12-30T18:48:14.554Z,1.90
2017-12-30T18:50:42.081Z,2.50
2017-12-30T18:53:09.632Z,2.57
2017-12-30T18:55:37.939Z,2.30
2017-12-30T18:58:05.502Z,3.00
2017-12-30T19:00:33.036Z,2.43
2017-12-30T19:03:00.581Z,1.80
2017-12-30T19:05:28.877Z,2.30
2017-12-30T19:07:56.438Z,2.50
2017-12-30T19:10:23.969Z,2.73
2017-12-30T19:12:51.518Z,2.53
2017-12-30T19:15:19.042Z,2.60
2017-12-30T19:17:46.594Z,2.07
2017-12-30T19:20:14.135Z,2.50
2017-12-30T19:22:41.687Z,3.00
2017-12-30T19:25:09.974Z,2.73
2017-12-30T19:27:37.534Z,2.10
2017-12-30T19:30:05.055Z,2.23
2017-12-30T19:32:32.990Z,3.40
2017-12-30T19:35:01.567Z,3.70
2017-12-30T19:37:29.481Z,3.87
2017-12-30T19:39:58.257Z,4.90
2017-12-30T19:42:26.687Z,4.13
2017-12-30T19:44:54.257Z,3.73
2017-12-30T19:47:22.092Z,2.87
2017-12-30T19:49:49.729Z,4.20
2017-12-30T19:52:18.254Z,2.67
2017-12-30T19:54:45.928Z,3.23
2017-12-30T19:57:13.571Z,2.83
2017-12-30T19:59:41.242Z,2.50
2017-12-30T20:02:08.793Z,4.73
2017-12-30T20:04:36.507Z,2.70
2017-12-30T20:07:04.082Z,2.70
2017-12-30T20:09:31.924Z,2.80
2017-12-30T20:11:59.533Z,2.70
2017-12-30T20:14:27.172Z,1.97
2017-12-30T20:16:54.744Z,2.20
2017-12-30T20:19:23.140Z,2.83
2017-12-30T20:21:50.699Z,2.70
2017-12-30T20:24:18.280Z,4.37
2017-12-30T20:26:45.874Z,3.40
2017-12-30T20:29:13.421Z,2.63
2017-12-30T20:31:40.963Z,4.17
2017-12-30T20:34:08.525Z,2.87
2017-12-30T20:36:36.045Z,7.43
2017-12-30T20:39:04.611Z,3.40
2017-12-30T20:41:32.994Z,3.30
2017-12-30T20:44:00.555Z,3.07
2017-12-30T20:46:28.083Z,4.90
2017-12-30T20:48:55.642Z,2.93
2017-12-30T20:51:23.174Z,2.90
2017-12-30T20:53:50.729Z,4.07
2017-12-30T20:56:18.269Z,2.87
2017-12-30T20:58:46.687Z,3.60
2017-12-30T21:01:14.240Z,3.90
2017-12-30T21:03:41.799Z,6.13
2017-12-30T21:06:09.384Z,3.80
2017-12-30T21:08:36.977Z,4.20
2017-12-30T21:11:04.543Z,4.07
2017-12-30T21:13:32.870Z,3.37
2017-12-30T21:16:00.446Z,5.93
2017-12-30T21:18:27.998Z,7.03
2017-12-30T21:20:55.528Z,4.83
2017-12-30T21:23:23.082Z,6.33
2017-12-30T21:25:50.610Z,4.37
2017-12-30T21:28:18.170Z,5.60
2017-12-30T21:30:46.471Z,6.50
2017-12-30T21:33:14.034Z,11.30
2017-12-30T21:35:41.565Z,6.97
2017-12-30T21:38:09.114Z,6.20
2017-12-30T21:40:36.654Z,8.17
2017-12-30T21:43:04.212Z,6.33
2017-12-30T21:45:31.751Z,5.40
2017-12-30T21:47:59.311Z,6.70
2017-12-30T21:50:26.839Z,7.50
2017-12-30T21:52:55.173Z,5.63
2017-12-30T21:55:22.698Z,4.93
2017-12-30T21:57:50.254Z,8.77
2017-12-30T22:00:17.790Z,6.10
2017-12-30T22:02:46.111Z,6.27
2017-12-30T22:05:13.668Z,6.30
2017-12-30T22:07:41.206Z,8.10
2017-12-30T22:10:08.774Z,7.57
2017-12-30T22:12:36.302Z,7.47
2017-12-30T22:15:04.629Z,8.33
2017-12-30T22:17:32.234Z,5.73
2017-12-30T22:19:59.795Z,6.40
2017-12-30T22:22:27.350Z,5.27
2017-12-30T22:24:54.906Z,4.47
2017-12-30T22:27:23.234Z,6.50
2017-12-30T22:29:50.786Z,5.40
2017-12-30T22:32:18.446Z,4.90
2017-12-30T22:34:46.011Z,7.00
2017-12-30T22:37:13.542Z,7.73
2017-12-30T22:39:41.889Z,14.67
2017-12-30T22:42:09.467Z,7.90
2017-12-30T22:44:37.002Z,15.30
2017-12-30T22:47:04.552Z,11.10
2017-12-30T22:49:33.252Z,14.63
2017-12-30T22:52:00.789Z,14.43
2017-12-30T22:54:28.342Z,11.50
2017-12-30T22:56:55.945Z,13.83
2017-12-30T22:59:23.514Z,11.43
2017-12-30T23:01:51.051Z,22.40
2017-12-30T23:04:18.610Z,12.90
2017-12-30T23:06:46.149Z,15.63
2017-12-30T23:09:13.698Z,9.63
2017-12-30T23:11:41.235Z,12.50
2017-12-30T23:14:09.565Z,23.33
2017-12-30T23:16:37.104Z,17.40
2017-12-30T23:19:04.659Z,22.50
2017-12-30T23:21:33.843Z,15.70
2017-12-30T23:24:01.406Z,19.60
2017-12-30T23:26:28.946Z,21.23
2017-12-30T23:28:57.279Z,28.87
2017-12-30T23:31:24.821Z,20.57
2017-12-30T23:33:52.382Z,15.93
2017-12-30T23:36:19.925Z,16.47
2017-12-30T23:38:47.478Z,24.33
2017-12-30T23:41:15.043Z,19.80
2017-12-30T23:43:42.606Z,21.00
2017-12-30T23:46:10.133Z,25.67
2017-12-30T23:48:37.735Z,17.00
2017-12-30T23:51:05.295Z,18.10
2017-12-30T23:53:32.852Z,14.10
2017-12-30T23:56:00.398Z,27.80
2017-12-30T23:58:27.957Z,14.97
